createdAt,value
2023-05-10T00:01:26.162Z,98988.38
2023-05-10T00:03:52.782Z,98993.53
2023-05-10T00:06:19.486Z,98994.84
2023-05-10T00:08:46.412Z,98992.69
2023-05-10T00:11:14.532Z,98980.22
2023-05-10T00:13:42.415Z,98983.91
2023-05-10T00:16:08.999Z,98987.03
2023-05-10T00:18:35.805Z,98989.41
2023-05-10T00:21:02.362Z,98993.38
2023-05-10T00:23:28.983Z,98994.28
2023-05-10T00:25:55.523Z,98987.75
2023-05-10T00:28:23.797Z,98983.97
2023-05-10T00:30:50.467Z,98979.63
2023-05-10T00:33:17.100Z,98990.91
2023-05-10T00:35:43.656Z,98982.09
2023-05-10T00:38:10.246Z,98982.28
2023-05-10T00:40:37.040Z,98975.75
2023-05-10T00:43:03.633Z,98980.59
2023-05-10T00:45:32.791Z,98986.41
2023-05-10T00:48:00.002Z,98981.31
2023-05-10T00:50:26.882Z,98980.56
2023-05-10T00:52:53.733Z,98983.44
2023-05-10T00:55:20.815Z,98986.16
2023-05-10T00:57:48.088Z,98983.66
2023-05-10T01:00:15.667Z,98989.47
2023-05-10T01:02:43.824Z,98991.41
2023-05-10T01:05:13.427Z,98988.09
2023-05-10T01:07:40.735Z,98995.25
2023-05-10T01:10:08.961Z,98997.75
2023-05-10T01:12:38.039Z,98988.50
2023-05-10T01:15:06.374Z,98992.47
2023-05-10T01:17:34.044Z,98988.38
2023-05-10T01:20:02.373Z,98995.56
2023-05-10T01:23:01.105Z,98996.19
2023-05-10T01:26:01.649Z,98993.34
2023-05-10T01:28:48.674Z,98999.00
2023-05-10T01:31:38.919Z,99000.78
2023-05-10T01:34:10.211Z,99002.56
2023-05-10T01:36:52.298Z,98999.09
2023-05-10T01:39:25.505Z,99000.41
2023-05-10T01:41:56.661Z,99002.28
2023-05-10T01:44:32.210Z,98995.72
2023-05-10T01:47:04.049Z,98997.75
2023-05-10T01:49:36.000Z,99003.97
2023-05-10T01:52:09.317Z,98998.22
2023-05-10T01:54:39.396Z,99007.31
2023-05-10T01:57:09.978Z,99006.28
2023-05-10T01:59:39.085Z,99009.63
2023-05-10T02:02:06.951Z,99016.34
2023-05-10T02:04:38.090Z,99012.84
2023-05-10T02:07:05.754Z,99001.38
2023-05-10T02:09:34.485Z,99007.22
2023-05-10T02:12:03.449Z,99008.84
2023-05-10T02:14:33.349Z,99011.75
2023-05-10T02:17:02.049Z,99012.00
2023-05-10T02:19:29.913Z,99013.91
2023-05-10T02:21:59.834Z,99013.53
2023-05-10T02:24:27.289Z,99013.53
2023-05-10T02:26:56.084Z,99009.75
2023-05-10T02:29:43.085Z,99022.31
2023-05-10T02:32:12.337Z,99023.34
2023-05-10T02:34:40.344Z,99028.22
2023-05-10T02:37:09.348Z,99032.50
2023-05-10T02:39:36.386Z,99034.06
2023-05-10T02:42:03.494Z,99034.06
2023-05-10T02:44:30.640Z,99034.34
2023-05-10T02:46:57.359Z,99031.34
2023-05-10T02:49:23.981Z,99024.56
2023-05-10T02:51:56.418Z,99031.94
2023-05-10T02:54:30.401Z,99033.78
2023-05-10T02:57:00.131Z,99038.56
2023-05-10T02:59:26.737Z,99039.25
2023-05-10T03:01:53.359Z,99041.34
2023-05-10T03:04:20.110Z,99035.72
2023-05-10T03:06:47.139Z,99033.69
2023-05-10T03:09:14.136Z,99033.47
2023-05-10T03:11:50.811Z,99031.13
2023-05-10T03:14:26.619Z,99038.97
2023-05-10T03:17:01.360Z,99035.78
2023-05-10T03:19:33.276Z,99048.16
2023-05-10T03:22:06.022Z,99036.31
2023-05-10T03:24:36.191Z,99040.69
2023-05-10T03:27:05.453Z,99039.22
2023-05-10T03:29:32.770Z,99039.78
2023-05-10T03:31:59.750Z,99047.88
2023-05-10T03:34:26.803Z,99052.59
2023-05-10T03:36:53.360Z,99055.88
2023-05-10T03:39:20.163Z,99049.59
2023-05-10T03:41:46.733Z,99057.97
2023-05-10T03:44:14.665Z,99052.03
2023-05-10T03:46:41.229Z,99049.44
2023-05-10T03:49:07.831Z,99050.16
2023-05-10T03:51:34.550Z,99062.00
2023-05-10T03:54:01.070Z,99052.34
2023-05-10T03:56:27.785Z,99058.38
2023-05-10T03:58:54.444Z,99057.66
2023-05-10T04:01:22.404Z,99058.69
2023-05-10T04:03:49.121Z,99062.84
2023-05-10T04:06:15.756Z,99072.97
2023-05-10T04:08:42.290Z,99069.22
2023-05-10T04:11:10.248Z,99068.19
2023-05-10T04:13:36.896Z,99080.88
2023-05-10T04:16:04.098Z,99069.22
2023-05-10T04:18:32.077Z,99077.22
2023-05-10T04:20:58.753Z,99071.69
2023-05-10T04:23:25.495Z,99070.84
2023-05-10T04:25:52.191Z,99066.84
2023-05-10T04:28:18.814Z,99067.44
2023-05-10T04:30:45.693Z,99061.22
2023-05-10T04:33:12.316Z,99067.03
2023-05-10T04:35:40.325Z,99068.22
2023-05-10T04:38:06.896Z,99070.84
2023-05-10T04:40:33.575Z,99069.78
2023-05-10T04:43:00.188Z,99066.66
2023-05-10T04:45:26.764Z,99065.50
2023-05-10T04:47:53.409Z,99063.91
2023-05-10T04:50:20.166Z,99071.28
2023-05-10T04:52:48.504Z,99078.97
2023-05-10T04:55:15.284Z,99077.25
2023-05-10T04:57:41.877Z,99075.25
2023-05-10T05:00:09.569Z,99073.78
2023-05-10T05:02:36.267Z,99081.47
2023-05-10T05:05:02.950Z,99089.84
2023-05-10T05:07:29.521Z,99086.41
2023-05-10T05:09:57.529Z,99086.28
2023-05-10T05:12:24.110Z,99090.75
2023-05-10T05:14:50.664Z,99091.88
2023-05-10T05:17:17.232Z,99089.41
2023-05-10T05:19:43.668Z,99095.22
2023-05-10T05:22:10.300Z,99102.28
2023-05-10T05:24:37.333Z,99096.41
2023-05-10T05:27:05.278Z,99096.69
2023-05-10T05:29:31.889Z,99104.59
2023-05-10T05:31:59.076Z,99109.06
2023-05-10T05:34:25.786Z,99110.72
2023-05-10T05:36:52.335Z,99108.94
2023-05-10T05:39:19.102Z,99106.88
2023-05-10T05:41:45.664Z,99107.50
2023-05-10T05:44:14.117Z,99116.75
2023-05-10T05:46:40.692Z,99126.56
2023-05-10T05:49:07.339Z,99115.53
2023-05-10T05:51:33.961Z,99130.19
2023-05-10T05:54:00.678Z,99130.66
2023-05-10T05:56:27.264Z,99121.25
2023-05-10T05:58:54.090Z,99128.69
2023-05-10T06:01:22.137Z,99135.63
2023-05-10T06:03:49.764Z,99130.78
2023-05-10T06:06:17.563Z,99133.78
2023-05-10T06:08:43.970Z,99134.03
2023-05-10T06:11:10.506Z,99145.72
2023-05-10T06:13:37.072Z,99150.16
2023-05-10T06:16:03.807Z,99145.91
2023-05-10T06:18:31.737Z,99150.88
2023-05-10T06:20:58.413Z,99143.59
2023-05-10T06:23:25.368Z,99151.09
2023-05-10T06:25:52.220Z,99158.16
2023-05-10T06:28:18.916Z,99155.25
2023-05-10T06:30:45.529Z,99163.34
2023-05-10T06:33:12.189Z,99161.19
2023-05-10T06:35:40.365Z,99163.38
2023-05-10T06:38:06.934Z,99162.00
2023-05-10T06:40:33.564Z,99169.16
2023-05-10T06:43:00.166Z,99167.72
2023-05-10T06:45:26.721Z,99161.69
2023-05-10T06:47:53.401Z,99174.34
2023-05-10T06:50:20.072Z,99173.31
2023-05-10T06:52:48.261Z,99175.63
2023-05-10T06:55:15.292Z,99173.78
2023-05-10T06:57:42.071Z,99176.63
2023-05-10T07:00:09.310Z,99182.38
2023-05-10T07:02:36.151Z,99177.09
2023-05-10T07:05:03.576Z,99182.91
2023-05-10T07:07:30.354Z,99185.25
2023-05-10T07:09:58.438Z,99187.34
2023-05-10T07:12:25.281Z,99189.13
2023-05-10T07:14:51.883Z,99191.09
2023-05-10T07:17:18.652Z,99182.19
2023-05-10T07:19:45.296Z,99193.41
2023-05-10T07:22:11.934Z,99190.91
2023-05-10T07:24:38.572Z,99190.84
2023-05-10T07:27:06.649Z,99193.59
2023-05-10T07:29:33.619Z,99192.75
2023-05-10T07:32:00.297Z,99186.38
2023-05-10T07:34:26.944Z,99188.03
2023-05-10T07:36:53.976Z,99184.53
2023-05-10T07:39:26.707Z,99189.13
2023-05-10T07:41:54.686Z,99189.84
2023-05-10T07:44:22.713Z,99189.50
2023-05-10T07:46:49.447Z,99194.75
2023-05-10T07:49:16.278Z,99196.53
2023-05-10T07:51:42.975Z,99205.44
2023-05-10T07:54:09.595Z,99204.31
2023-05-10T07:56:36.282Z,99202.41
2023-05-10T07:59:04.244Z,99195.09
2023-05-10T08:01:34.462Z,99194.75
2023-05-10T08:04:01.873Z,99200.56
2023-05-10T08:06:28.771Z,99197.97
2023-05-10T08:08:55.235Z,99200.53
2023-05-10T08:11:21.841Z,99205.97
2023-05-10T08:13:49.915Z,99209.06
2023-05-10T08:16:16.846Z,99203.69
2023-05-10T08:18:45.779Z,99205.41
2023-05-10T08:21:12.539Z,99203.31
2023-05-10T08:23:39.176Z,99212.34
2023-05-10T08:26:05.891Z,99218.84
2023-05-10T08:28:32.629Z,99217.03
2023-05-10T08:30:59.297Z,99224.38
2023-05-10T08:33:28.062Z,99230.31
2023-05-10T08:35:55.926Z,99226.78
2023-05-10T08:38:22.628Z,99221.88
2023-05-10T08:40:50.758Z,99231.88
2023-05-10T08:43:17.696Z,99235.63
2023-05-10T08:45:45.591Z,99240.13
2023-05-10T08:48:12.393Z,99241.66
2023-05-10T08:50:43.691Z,99242.97
2023-05-10T08:53:13.139Z,99233.31
2023-05-10T08:55:40.788Z,99241.94
2023-05-10T08:58:07.781Z,99233.09
2023-05-10T09:00:34.885Z,99236.13
2023-05-10T09:03:03.860Z,99244.97
2023-05-10T09:05:30.556Z,99247.06
2023-05-10T09:07:57.150Z,99251.47
2023-05-10T09:10:26.743Z,99250.38
2023-05-10T09:12:54.345Z,99251.81
2023-05-10T09:15:21.130Z,99243.81
2023-05-10T09:17:50.113Z,99240.34
2023-05-10T09:20:16.882Z,99250.44
2023-05-10T09:22:43.528Z,99254.47
2023-05-10T09:25:12.498Z,99262.97
2023-05-10T09:27:41.558Z,99256.50
2023-05-10T09:30:09.836Z,99266.50
2023-05-10T09:32:40.817Z,99268.47
2023-05-10T09:35:08.858Z,99277.03
2023-05-10T09:37:35.550Z,99280.81
2023-05-10T09:40:05.776Z,99288.28
2023-05-10T09:42:32.372Z,99289.16
2023-05-10T09:45:03.461Z,99292.03
2023-05-10T09:47:30.085Z,99285.50
2023-05-10T09:49:58.761Z,99285.50
2023-05-10T09:52:25.350Z,99288.78
2023-05-10T09:54:54.551Z,99287.25
2023-05-10T09:57:22.180Z,99289.31
2023-05-10T09:59:49.176Z,99284.00
2023-05-10T10:02:17.443Z,99288.28
2023-05-10T10:04:44.221Z,99289.84
2023-05-10T10:07:10.867Z,99283.78
2023-05-10T10:09:37.512Z,99294.31
2023-05-10T10:12:04.933Z,99287.41
2023-05-10T10:14:31.667Z,99294.16
2023-05-10T10:19:34.248Z,99290.16
2023-05-10T10:22:01.312Z,99293.97
2023-05-10T10:24:28.080Z,99295.19
2023-05-10T10:26:58.230Z,99302.25
2023-05-10T10:29:32.255Z,99296.53
2023-05-10T10:32:10.285Z,99306.13
2023-05-10T10:34:40.386Z,99302.69
2023-05-10T10:37:08.362Z,99308.56
2023-05-10T10:39:34.957Z,99306.22
2023-05-10T10:42:01.604Z,99311.69
2023-05-10T10:44:36.593Z,99316.84
2023-05-10T10:47:06.042Z,99312.88
2023-05-10T10:49:33.569Z,99317.91
2023-05-10T10:52:33.296Z,99313.94
2023-05-10T10:55:02.254Z,99320.34
2023-05-10T10:57:29.525Z,99314.78
2023-05-10T11:00:30.281Z,99315.66
2023-05-10T11:03:03.509Z,99312.75
2023-05-10T11:05:41.538Z,99314.88
2023-05-10T11:08:20.290Z,99324.50
2023-05-10T11:10:55.254Z,99322.78
2023-05-10T11:13:30.100Z,99325.41
2023-05-10T11:15:57.293Z,99320.38
2023-05-10T11:18:26.288Z,99322.19
2023-05-10T11:20:53.803Z,99312.63
2023-05-10T11:23:23.497Z,99318.66
2023-05-10T11:25:50.484Z,99327.28
2023-05-10T11:28:18.910Z,99314.56
2023-05-10T11:30:46.260Z,99315.78
2023-05-10T11:33:17.212Z,99314.09
2023-05-10T11:35:44.015Z,99318.88
2023-05-10T11:38:12.005Z,99328.69
2023-05-10T11:40:40.680Z,99340.75
2023-05-10T11:43:09.236Z,99329.25
2023-05-10T11:45:36.170Z,99332.94
2023-05-10T11:48:04.021Z,99330.50
2023-05-10T11:50:30.771Z,99334.53
2023-05-10T11:52:58.173Z,99344.22
2023-05-10T11:55:25.056Z,99335.72
2023-05-10T11:57:55.143Z,99344.25
2023-05-10T12:00:22.210Z,99338.38
2023-05-10T12:02:49.451Z,99339.22
2023-05-10T12:05:16.320Z,99342.16
2023-05-10T12:07:42.939Z,99347.28
2023-05-10T12:10:10.986Z,99339.44
2023-05-10T12:12:41.646Z,99345.34
2023-05-10T12:15:12.057Z,99343.47
2023-05-10T12:17:40.702Z,99337.16
2023-05-10T12:20:16.274Z,99339.69
2023-05-10T12:22:45.937Z,99346.56
2023-05-10T12:25:12.578Z,99349.41
2023-05-10T12:27:39.264Z,99351.91
2023-05-10T12:30:07.138Z,99350.84
2023-05-10T12:32:42.326Z,99352.41
2023-05-10T12:35:09.360Z,99343.75
2023-05-10T12:37:36.347Z,99343.97
2023-05-10T12:40:03.137Z,99340.09
2023-05-10T12:42:29.888Z,99342.63
2023-05-10T12:44:57.127Z,99341.88
2023-05-10T12:47:23.694Z,99353.16
2023-05-10T12:49:51.690Z,99351.03
2023-05-10T12:52:18.317Z,99344.75
2023-05-10T12:54:44.958Z,99348.94
2023-05-10T12:57:11.568Z,99351.41
2023-05-10T12:59:38.416Z,99340.44
2023-05-10T13:02:05.305Z,99351.69
2023-05-10T13:04:32.014Z,99358.84
2023-05-10T13:07:00.137Z,99356.78
2023-05-10T13:09:28.620Z,99357.91
2023-05-10T13:11:55.201Z,99357.44
2023-05-10T13:14:21.956Z,99356.00
2023-05-10T13:16:48.779Z,99365.44
2023-05-10T13:19:16.558Z,99372.94
2023-05-10T13:21:43.309Z,99360.72
2023-05-10T13:24:11.466Z,99360.63
2023-05-10T13:26:38.162Z,99357.94
2023-05-10T13:29:04.717Z,99362.53
2023-05-10T13:31:31.393Z,99366.34
2023-05-10T13:33:58.021Z,99364.75
2023-05-10T13:36:24.634Z,99365.66
2023-05-10T13:38:51.260Z,99358.69
2023-05-10T13:41:19.236Z,99357.13
2023-05-10T13:43:45.795Z,99360.53
2023-05-10T13:46:12.434Z,99349.28
2023-05-10T13:48:39.280Z,99354.81
2023-05-10T13:51:05.981Z,99362.56
2023-05-10T13:53:32.556Z,99362.69
2023-05-10T13:56:02.027Z,99349.94
2023-05-10T13:58:30.004Z,99348.50
2023-05-10T14:04:18.385Z,99353.16
2023-05-10T14:06:44.961Z,99349.91
2023-05-10T14:09:11.540Z,99343.03
2023-05-10T14:11:38.115Z,99338.22
2023-05-10T14:14:06.042Z,99343.84
2023-05-10T14:16:32.655Z,99347.75
2023-05-10T14:18:59.269Z,99345.25
2023-05-10T14:21:25.985Z,99336.38
2023-05-10T14:23:52.536Z,99340.38
2023-05-10T14:26:19.113Z,99350.34
2023-05-10T14:28:45.755Z,99338.88
2023-05-10T14:31:13.856Z,99347.41
2023-05-10T14:33:40.533Z,99345.00
2023-05-10T14:36:07.752Z,99341.56
2023-05-10T14:38:34.176Z,99347.69
2023-05-10T14:41:00.766Z,99353.13
2023-05-10T14:43:27.439Z,99346.81
2023-05-10T14:45:55.520Z,99351.16
2023-05-10T14:48:23.530Z,99356.50
2023-05-10T14:50:50.094Z,99352.59
2023-05-10T14:53:16.686Z,99354.38
2023-05-10T14:55:43.456Z,99349.44
2023-05-10T14:58:10.033Z,99345.03
2023-05-10T15:00:41.572Z,99353.25
2023-05-10T15:03:08.669Z,99356.56
2023-05-10T15:05:39.781Z,99350.28
2023-05-10T15:08:06.443Z,99355.13
2023-05-10T15:10:34.364Z,99347.44
2023-05-10T15:13:01.412Z,99350.56
2023-05-10T15:15:28.000Z,99349.47
2023-05-10T15:17:54.589Z,99350.84
2023-05-10T15:20:21.232Z,99347.00
2023-05-10T15:22:49.176Z,99352.09
2023-05-10T15:25:15.859Z,99345.19
2023-05-10T15:27:42.741Z,99356.13
2023-05-10T15:30:10.395Z,99353.03
2023-05-10T15:32:36.959Z,99357.63
2023-05-10T15:35:03.813Z,99362.31
2023-05-10T15:37:32.963Z,99356.84
2023-05-10T15:40:01.329Z,99362.72
2023-05-10T15:42:27.885Z,99358.03
2023-05-10T15:44:54.474Z,99363.97
2023-05-10T15:47:21.121Z,99360.16
2023-05-10T15:49:48.103Z,99359.91
2023-05-10T15:52:14.677Z,99366.88
2023-05-10T15:54:41.405Z,99362.34
2023-05-10T15:57:09.343Z,99361.75
2023-05-10T15:59:35.894Z,99363.31
2023-05-10T16:02:02.581Z,99360.16
2023-05-10T16:04:29.145Z,99364.75
2023-05-10T16:06:55.810Z,99364.09
2023-05-10T16:09:22.407Z,99369.50
2023-05-10T16:11:49.041Z,99374.94
2023-05-10T16:14:16.970Z,99369.44
2023-05-10T16:16:43.643Z,99370.75
2023-05-10T16:19:10.276Z,99377.81
2023-05-10T16:21:36.926Z,99364.66
2023-05-10T16:24:03.820Z,99369.34
2023-05-10T16:26:30.481Z,99373.53
2023-05-10T16:28:57.148Z,99382.59
2023-05-10T16:31:25.102Z,99389.63
2023-05-10T16:33:51.835Z,99396.91
2023-05-10T16:36:18.683Z,99396.94
2023-05-10T16:38:45.242Z,99396.03
2023-05-10T16:41:11.812Z,99400.03
2023-05-10T16:43:38.402Z,99416.69
2023-05-10T16:46:10.244Z,99409.69
2023-05-10T16:48:38.440Z,99403.63
2023-05-10T16:51:05.045Z,99414.47
2023-05-10T16:53:31.893Z,99427.78
2023-05-10T16:55:58.464Z,99420.38
2023-05-10T16:58:25.111Z,99423.13
2023-05-10T17:00:51.732Z,99423.66
2023-05-10T17:03:18.666Z,99428.53
2023-05-10T17:05:46.668Z,99431.75
2023-05-10T17:08:13.126Z,99428.75
2023-05-10T17:10:40.148Z,99430.97
2023-05-10T17:13:08.117Z,99440.47
2023-05-10T17:15:36.763Z,99443.34
2023-05-10T17:18:03.516Z,99446.34
2023-05-10T17:20:30.147Z,99447.47
2023-05-10T17:22:58.110Z,99449.97
2023-05-10T17:25:24.783Z,99454.81
2023-05-10T17:27:51.403Z,99455.13
2023-05-10T17:30:18.018Z,99450.22
2023-05-10T17:32:44.711Z,99460.22
2023-05-10T17:35:14.198Z,99464.56
2023-05-10T17:37:40.855Z,99462.97
2023-05-10T17:40:10.251Z,99470.91
2023-05-10T17:42:36.820Z,99472.59
2023-05-10T17:45:03.681Z,99480.25
2023-05-10T17:47:31.552Z,99468.38
2023-05-10T17:49:58.200Z,99476.50
2023-05-10T17:52:24.805Z,99475.34
2023-05-10T17:54:51.366Z,99474.75
2023-05-10T17:57:19.344Z,99471.19
2023-05-10T17:59:45.902Z,99471.91
2023-05-10T18:02:13.267Z,99481.44
2023-05-10T18:04:40.126Z,99479.81
2023-05-10T18:07:06.995Z,99490.38
2023-05-10T18:09:33.492Z,99487.50
2023-05-10T18:12:01.710Z,99491.84
2023-05-10T18:14:39.697Z,99491.84
2023-05-10T18:17:07.572Z,99491.03
2023-05-10T18:19:34.330Z,99492.09
2023-05-10T18:22:00.913Z,99490.06
2023-05-10T18:24:38.320Z,99489.34
2023-05-10T18:27:06.092Z,99486.00
2023-05-10T18:29:34.322Z,99494.28
2023-05-10T18:32:00.881Z,99495.38
2023-05-10T18:34:27.441Z,99488.63
2023-05-10T18:36:54.097Z,99491.41
2023-05-10T18:39:20.793Z,99494.44
2023-05-10T18:41:47.494Z,99498.56
2023-05-10T18:44:14.157Z,99499.28
2023-05-10T18:46:42.300Z,99509.69
2023-05-10T18:49:08.958Z,99506.66
2023-05-10T18:51:35.650Z,99500.44
2023-05-10T18:54:02.223Z,99503.03
2023-05-10T18:56:28.793Z,99500.16
2023-05-10T18:58:55.314Z,99498.56
2023-05-10T19:01:21.868Z,99499.25
2023-05-10T19:03:49.806Z,99502.84
2023-05-10T19:06:16.388Z,99501.44
2023-05-10T19:08:43.058Z,99509.50
2023-05-10T19:11:09.618Z,99507.47
2023-05-10T19:13:36.470Z,99515.34
2023-05-10T19:16:04.707Z,99513.81
2023-05-10T19:18:33.219Z,99515.94
2023-05-10T19:21:02.140Z,99518.09
2023-05-10T19:23:28.840Z,99513.66
2023-05-10T19:25:55.394Z,99514.38
2023-05-10T19:28:22.006Z,99517.81
2023-05-10T19:30:48.664Z,99518.13
2023-05-10T19:33:15.290Z,99513.47
2023-05-10T19:35:41.943Z,99516.56
2023-05-10T19:38:10.003Z,99522.16
2023-05-10T19:40:36.571Z,99528.84
2023-05-10T19:43:03.282Z,99526.78
2023-05-10T19:45:30.066Z,99530.84
2023-05-10T19:47:56.628Z,99530.69
2023-05-10T19:50:23.299Z,99524.06
2023-05-10T19:52:50.627Z,99539.97
2023-05-10T19:55:27.055Z,99540.25
2023-05-10T19:57:53.712Z,99544.97
2023-05-10T20:00:20.338Z,99536.84
2023-05-10T20:02:46.971Z,99549.09
2023-05-10T20:05:13.585Z,99545.91
2023-05-10T20:07:40.166Z,99552.31
2023-05-10T20:10:07.941Z,99539.59
2023-05-10T20:12:35.938Z,99544.28
2023-05-10T20:15:02.705Z,99545.44
2023-05-10T20:17:29.580Z,99534.47
2023-05-10T20:19:56.189Z,99542.44
2023-05-10T20:22:22.732Z,99542.44
2023-05-10T20:24:49.325Z,99546.38
2023-05-10T20:27:16.969Z,99544.47
2023-05-10T20:29:44.889Z,99540.59
2023-05-10T20:32:11.443Z,99537.84
2023-05-10T20:34:37.995Z,99544.75
2023-05-10T20:37:04.551Z,99540.13
2023-05-10T20:39:31.128Z,99545.78
2023-05-10T20:41:57.699Z,99536.69
2023-05-10T20:44:24.332Z,99541.25
2023-05-10T20:46:53.025Z,99544.34
2023-05-10T20:49:19.596Z,99540.88
2023-05-10T20:51:56.494Z,99540.47
2023-05-10T20:54:23.128Z,99535.84
2023-05-10T20:56:49.839Z,99530.63
2023-05-10T20:59:16.459Z,99535.13
2023-05-10T21:01:43.041Z,99525.47
2023-05-10T21:04:11.061Z,99539.81
2023-05-10T21:06:38.308Z,99541.66
2023-05-10T21:09:05.025Z,99542.69
2023-05-10T21:11:35.942Z,99541.72
2023-05-10T21:14:02.776Z,99544.94
2023-05-10T21:16:29.386Z,99546.25
2023-05-10T21:18:56.018Z,99551.34
2023-05-10T21:21:24.012Z,99545.72
2023-05-10T21:23:50.576Z,99543.81
2023-05-10T21:26:17.159Z,99541.41
2023-05-10T21:28:44.305Z,99542.19
2023-05-10T21:31:11.001Z,99542.53
2023-05-10T21:33:37.574Z,99537.94
2023-05-10T21:36:04.895Z,99542.84
2023-05-10T21:38:33.291Z,99541.53
2023-05-10T21:41:15.470Z,99536.31
2023-05-10T21:43:42.649Z,99534.31
2023-05-10T21:46:09.428Z,99536.16
2023-05-10T21:48:36.337Z,99542.66
2023-05-10T21:51:03.033Z,99547.13
2023-05-10T21:53:29.553Z,99545.88
2023-05-10T21:55:57.535Z,99546.00
2023-05-10T21:58:24.211Z,99526.69
2023-05-10T22:00:51.015Z,99532.75
2023-05-10T22:03:18.321Z,99533.03
2023-05-10T22:05:45.038Z,99531.97
2023-05-10T22:08:11.678Z,99533.38
2023-05-10T22:10:38.327Z,99539.59
2023-05-10T22:13:06.514Z,99544.94
2023-05-10T22:15:35.545Z,99547.84
2023-05-10T22:18:03.064Z,99543.22
2023-05-10T22:20:29.807Z,99546.69
2023-05-10T22:22:56.372Z,99548.56
2023-05-10T22:25:22.911Z,99556.41
2023-05-10T22:30:32.783Z,99567.31
2023-05-10T22:32:59.724Z,99564.78
2023-05-10T22:35:26.346Z,99559.81
2023-05-10T22:37:52.917Z,99559.53
2023-05-10T22:40:19.635Z,99565.66
2023-05-10T22:42:46.279Z,99567.16
2023-05-10T22:45:12.873Z,99563.59
2023-05-10T22:47:41.369Z,99568.41
2023-05-10T22:50:09.200Z,99571.72
2023-05-10T22:52:35.752Z,99563.66
2023-05-10T22:55:02.274Z,99566.25
2023-05-10T22:57:29.378Z,99563.94
2023-05-10T22:59:55.931Z,99561.03
2023-05-10T23:02:22.623Z,99567.53
2023-05-10T23:04:50.793Z,99567.53
2023-05-10T23:07:17.333Z,99565.94
2023-05-10T23:09:43.888Z,99566.59
2023-05-10T23:12:10.469Z,99564.97
2023-05-10T23:14:37.003Z,99565.25
2023-05-10T23:17:03.552Z,99546.34
2023-05-10T23:19:30.162Z,99558.16
2023-05-10T23:21:58.083Z,99555.22
2023-05-10T23:24:24.623Z,99547.88
2023-05-10T23:26:51.453Z,99557.97
2023-05-10T23:29:18.136Z,99553.00
2023-05-10T23:31:44.713Z,99560.63
2023-05-10T23:34:11.391Z,99563.06
2023-05-10T23:36:38.061Z,99560.41
2023-05-10T23:39:06.608Z,99565.19
2023-05-10T23:41:33.158Z,99560.84
2023-05-10T23:43:59.881Z,99550.03
2023-05-10T23:46:26.516Z,99555.72
2023-05-10T23:48:53.299Z,99551.28
2023-05-10T23:51:19.847Z,99555.03
2023-05-10T23:53:46.436Z,99558.66
2023-05-10T23:56:14.496Z,99561.59
2023-05-10T23:58:41.047Z,99563.59
